Time;durP1;ratioP1;P1;durP2;ratioP2;P2;SDS_P1;SDS_P2;PMS_P1;PMS_P2;Temp;Humidity;BMP_temperature;BMP_pressure;BME280_temperature;BME280_humidity;BME280_pressure;Samples;Min_cycle;Max_cycle;Signal;HPM_P1;HPM_P2
2022/10/19 00:00:14;;;;;;;11.52;5.28;;;;;;;;;;5064906;28;20075;-62
2022/10/19 00:02:39;;;;;;;10.00;5.30;;;;;;;;;;5042386;28;20603;-62
2022/10/19 00:05:05;;;;;;;13.73;5.68;;;;;;;;;;5047911;28;20037;-62
2022/10/19 00:07:30;;;;;;;17.23;5.28;;;;;;;;;;5048730;28;20049;-63
2022/10/19 00:09:55;;;;;;;12.40;5.20;;;;;;;;;;5048444;28;20726;-63
2022/10/19 00:12:21;;;;;;;14.07;5.93;;;;;;;;;;5048618;28;20033;-63
2022/10/19 00:14:46;;;;;;;13.35;5.40;;;;;;;;;;5048494;28;20139;-62
2022/10/19 00:17:11;;;;;;;11.70;5.68;;;;;;;;;;5048403;28;20055;-62
2022/10/19 00:19:37;;;;;;;14.65;5.65;;;;;;;;;;5048214;28;20477;-62
2022/10/19 00:22:02;;;;;;;14.90;5.80;;;;;;;;;;5047876;28;20020;-62
2022/10/19 00:24:27;;;;;;;13.60;6.15;;;;;;;;;;5046062;28;20025;-62
2022/10/19 00:26:52;;;;;;;10.43;5.60;;;;;;;;;;5046915;28;20029;-63
2022/10/19 00:29:18;;;;;;;17.58;6.75;;;;;;;;;;5045984;28;20033;-63
2022/10/19 00:31:43;;;;;;;16.90;7.35;;;;;;;;;;5046418;28;20496;-62
2022/10/19 00:34:09;;;;;;;16.67;6.03;;;;;;;;;;5047332;28;20029;-62
2022/10/19 00:36:37;;;;;;;13.15;7.25;;;;;;;;;;5047020;28;20031;-63
2022/10/19 00:39:05;;;;;;;13.82;6.50;;;;;;;;;;5047511;28;20109;-62
2022/10/19 00:41:33;;;;;;;17.77;7.97;;;;;;;;;;5048141;28;20033;-62
2022/10/19 00:44:01;;;;;;;15.43;6.80;;;;;;;;;;5046734;28;20045;-62
2022/10/19 00:46:30;;;;;;;23.15;6.97;;;;;;;;;;5038848;28;20515;-62
2022/10/19 00:49:05;;;;;;;19.75;7.10;;;;;;;;;;5028096;28;20125;-62
2022/10/19 00:51:31;;;;;;;17.45;6.30;;;;;;;;;;5027447;28;20037;-63
2022/10/19 00:53:57;;;;;;;15.02;6.55;;;;;;;;;;5038080;28;20120;-62
2022/10/19 00:56:23;;;;;;;15.27;5.70;;;;;;;;;;5048856;28;20116;-62
2022/10/19 00:58:48;;;;;;;12.75;6.35;;;;;;;;;;5047599;28;20037;-62
2022/10/19 01:01:20;;;;;;;14.80;5.65;;;;;;;;;;5047528;28;20037;-62
2022/10/19 01:03:46;;;;;;;13.13;5.32;;;;;;;;;;5028939;28;20025;-63
2022/10/19 01:06:15;;;;;;;15.05;5.45;;;;;;;;;;5027829;28;20522;-62
2022/10/19 01:08:40;;;;;;;16.48;5.07;;;;;;;;;;5027788;28;20072;-63
2022/10/19 01:11:24;;;;;;;18.00;4.97;;;;;;;;;;5032234;28;20089;-63
2022/10/19 01:14:05;;;;;;;11.55;4.30;;;;;;;;;;5047620;28;20082;-63
2022/10/19 01:16:39;;;;;;;10.30;4.75;;;;;;;;;;5046782;28;20514;-62
2022/10/19 01:19:23;;;;;;;13.23;6.80;;;;;;;;;;5047010;28;20020;-62
2022/10/19 01:22:05;;;;;;;13.50;5.30;;;;;;;;;;5047642;28;20051;-62
2022/10/19 01:24:50;;;;;;;14.70;4.80;;;;;;;;;;5056628;28;20085;-62
2022/10/19 01:28:01;;;;;;;10.10;4.78;;;;;;;;;;5058164;28;20101;-62
2022/10/19 01:30:41;;;;;;;12.85;4.75;;;;;;;;;;5027250;28;20053;-63
2022/10/19 01:33:09;;;;;;;9.68;4.70;;;;;;;;;;5025198;28;20048;-62
2022/10/19 01:36:02;;;;;;;12.13;4.95;;;;;;;;;;5026909;28;20067;-62
2022/10/19 01:38:40;;;;;;;9.48;4.93;;;;;;;;;;5041592;28;20131;-62
2022/10/19 01:41:17;;;;;;;13.68;4.97;;;;;;;;;;5045259;28;20043;-62
2022/10/19 01:43:57;;;;;;;17.90;4.57;;;;;;;;;;5044889;28;20191;-62
2022/10/19 01:46:38;;;;;;;12.45;4.72;;;;;;;;;;5046435;28;20043;-62
2022/10/19 01:49:11;;;;;;;14.15;4.93;;;;;;;;;;5043645;28;20029;-62
2022/10/19 01:51:41;;;;;;;12.30;4.63;;;;;;;;;;5033744;28;20029;-62
2022/10/19 01:54:11;;;;;;;13.93;4.82;;;;;;;;;;5046140;28;20725;-63
2022/10/19 01:56:38;;;;;;;11.43;4.70;;;;;;;;;;5046371;28;20052;-62
2022/10/19 01:59:07;;;;;;;10.80;4.38;;;;;;;;;;5047859;28;20074;-62
2022/10/19 02:01:37;;;;;;;9.98;4.38;;;;;;;;;;5065557;28;20056;-62
2022/10/19 02:04:03;;;;;;;9.90;4.45;;;;;;;;;;5065091;28;20032;-62
2022/10/19 02:06:29;;;;;;;10.02;4.10;;;;;;;;;;5066288;28;20541;-62
2022/10/19 02:08:54;;;;;;;8.27;3.92;;;;;;;;;;5066241;28;20067;-62
2022/10/19 02:11:21;;;;;;;9.00;4.07;;;;;;;;;;5059185;28;20056;-62
2022/10/19 02:13:51;;;;;;;8.77;4.20;;;;;;;;;;5046453;28;20128;-62
2022/10/19 02:16:22;;;;;;;13.00;3.92;;;;;;;;;;5046196;28;21536;-62
2022/10/19 02:18:50;;;;;;;8.15;3.80;;;;;;;;;;5046416;28;20405;-63
2022/10/19 02:21:16;;;;;;;12.30;5.00;;;;;;;;;;5045837;28;20033;-62
2022/10/19 02:23:42;;;;;;;10.60;4.22;;;;;;;;;;5046330;28;20052;-62
2022/10/19 02:26:07;;;;;;;10.10;4.10;;;;;;;;;;5045622;28;20033;-62
2022/10/19 02:28:34;;;;;;;7.18;4.25;;;;;;;;;;5045775;28;20103;-62
2022/10/19 02:30:59;;;;;;;15.10;5.00;;;;;;;;;;5046179;28;20039;-62
2022/10/19 02:33:26;;;;;;;13.32;5.03;;;;;;;;;;5045980;28;20025;-63
2022/10/19 02:35:52;;;;;;;11.20;3.95;;;;;;;;;;5045875;28;20060;-62
2022/10/19 02:38:21;;;;;;;15.32;5.60;;;;;;;;;;5045423;28;20067;-63
2022/10/19 02:40:59;;;;;;;8.15;3.90;;;;;;;;;;5044512;28;20043;-62
2022/10/19 02:43:27;;;;;;;14.00;5.00;;;;;;;;;;5044082;28;20110;-63
2022/10/19 02:46:07;;;;;;;11.20;5.07;;;;;;;;;;5046868;28;20020;-62
2022/10/19 02:48:36;;;;;;;13.73;4.70;;;;;;;;;;5048269;28;20055;-62
2022/10/19 02:51:02;;;;;;;12.38;4.93;;;;;;;;;;5045569;28;20135;-62
2022/10/19 02:53:27;;;;;;;10.38;4.88;;;;;;;;;;5044956;28;20131;-62
2022/10/19 02:55:53;;;;;;;11.88;5.10;;;;;;;;;;5045612;28;20461;-62
2022/10/19 02:58:18;;;;;;;13.05;5.35;;;;;;;;;;5035461;28;20060;-62
2022/10/19 03:00:43;;;;;;;13.90;4.88;;;;;;;;;;5044408;28;20025;-62
2022/10/19 03:03:09;;;;;;;14.82;5.32;;;;;;;;;;5045496;28;20051;-63
2022/10/19 03:05:34;;;;;;;15.20;5.70;;;;;;;;;;5044848;28;20041;-62
2022/10/19 03:07:59;;;;;;;21.17;6.40;;;;;;;;;;5045399;28;20097;-62
2022/10/19 03:10:25;;;;;;;13.50;5.35;;;;;;;;;;5045095;28;20450;-62
2022/10/19 03:12:50;;;;;;;19.75;5.72;;;;;;;;;;5043535;28;20048;-62
2022/10/19 03:15:16;;;;;;;18.63;6.07;;;;;;;;;;5041192;28;20037;-62
2022/10/19 03:17:42;;;;;;;14.55;5.72;;;;;;;;;;5025570;28;20033;-62
2022/10/19 03:20:08;;;;;;;17.80;6.00;;;;;;;;;;5030143;28;20123;-62
2022/10/19 03:22:34;;;;;;;14.25;6.72;;;;;;;;;;5039876;28;20029;-62
2022/10/19 03:24:59;;;;;;;12.93;5.40;;;;;;;;;;5042147;28;20021;-62
2022/10/19 03:27:24;;;;;;;12.02;5.55;;;;;;;;;;5045298;28;20187;-62
2022/10/19 03:29:50;;;;;;;14.88;5.85;;;;;;;;;;5038616;28;20045;-62
2022/10/19 03:32:15;;;;;;;12.52;5.70;;;;;;;;;;5052201;28;20048;-63
2022/10/19 03:34:40;;;;;;;18.17;6.13;;;;;;;;;;5065050;28;20139;-62
2022/10/19 03:37:07;;;;;;;13.25;6.65;;;;;;;;;;5063128;28;20024;-62
2022/10/19 03:39:33;;;;;;;14.93;6.60;;;;;;;;;;5035455;28;20029;-62
2022/10/19 03:41:58;;;;;;;18.23;6.60;;;;;;;;;;5048990;28;20036;-62
2022/10/19 03:44:23;;;;;;;20.58;6.95;;;;;;;;;;5047424;28;20074;-62
2022/10/19 03:46:48;;;;;;;16.88;6.22;;;;;;;;;;5048274;28;20047;-62
2022/10/19 03:49:14;;;;;;;17.42;6.55;;;;;;;;;;5035352;28;20029;-62
2022/10/19 03:51:39;;;;;;;14.98;6.10;;;;;;;;;;5051390;28;20025;-62
2022/10/19 03:54:08;;;;;;;16.55;6.28;;;;;;;;;;5048561;28;20064;-62
2022/10/19 03:56:34;;;;;;;18.98;6.45;;;;;;;;;;5048696;28;20418;-62
2022/10/19 03:59:02;;;;;;;19.20;6.57;;;;;;;;;;5047294;28;20041;-62
2022/10/19 04:01:29;;;;;;;16.55;6.32;;;;;;;;;;5048827;28;20041;-63
2022/10/19 04:03:56;;;;;;;25.30;7.55;;;;;;;;;;5049495;28;20032;-62
2022/10/19 04:06:25;;;;;;;15.57;6.70;;;;;;;;;;5048297;28;20072;-63
2022/10/19 04:08:51;;;;;;;17.20;7.55;;;;;;;;;;5047493;28;20403;-63
2022/10/19 04:11:19;;;;;;;11.90;6.25;;;;;;;;;;5048966;28;20040;-62
2022/10/19 04:13:48;;;;;;;16.92;7.25;;;;;;;;;;5048406;28;20048;-62
2022/10/19 04:16:13;;;;;;;15.88;7.72;;;;;;;;;;5048260;28;20078;-62
2022/10/19 04:18:38;;;;;;;20.55;7.00;;;;;;;;;;5047368;28;20329;-62
2022/10/19 04:21:05;;;;;;;14.57;6.88;;;;;;;;;;5044023;28;20447;-62
2022/10/19 04:23:34;;;;;;;23.23;7.85;;;;;;;;;;5048843;28;20033;-63
2022/10/19 04:26:05;;;;;;;20.45;7.38;;;;;;;;;;5048674;28;20037;-63
2022/10/19 04:28:31;;;;;;;21.02;7.13;;;;;;;;;;5047992;28;20072;-62
2022/10/19 04:31:01;;;;;;;15.35;7.35;;;;;;;;;;5048815;28;20021;-63
2022/10/19 04:33:26;;;;;;;16.23;7.63;;;;;;;;;;5048080;28;20036;-62
2022/10/19 04:36:00;;;;;;;19.02;7.70;;;;;;;;;;5048000;28;20036;-62
2022/10/19 04:38:26;;;;;;;18.25;7.78;;;;;;;;;;5048418;28;20094;-62
2022/10/19 04:40:51;;;;;;;19.52;8.05;;;;;;;;;;5046801;28;20037;-62
2022/10/19 04:43:17;;;;;;;14.85;7.40;;;;;;;;;;5047987;28;20565;-62
2022/10/19 04:45:42;;;;;;;23.10;8.30;;;;;;;;;;5048506;28;20021;-62
2022/10/19 04:48:07;;;;;;;17.85;7.35;;;;;;;;;;5048010;28;20198;-62
2022/10/19 04:50:33;;;;;;;20.77;7.65;;;;;;;;;;5047372;28;20186;-62
2022/10/19 04:52:58;;;;;;;26.35;7.85;;;;;;;;;;5046377;28;20044;-62
2022/10/19 04:55:23;;;;;;;18.95;7.40;;;;;;;;;;5068052;28;20472;-62
2022/10/19 04:57:49;;;;;;;18.98;7.20;;;;;;;;;;5067976;28;20683;-62
2022/10/19 05:00:14;;;;;;;20.70;7.90;;;;;;;;;;5067325;28;20044;-63
2022/10/19 05:02:46;;;;;;;18.77;7.20;;;;;;;;;;5067510;28;20573;-62
2022/10/19 05:05:13;;;;;;;19.00;7.07;;;;;;;;;;5067356;28;20177;-62
2022/10/19 05:07:38;;;;;;;17.05;6.95;;;;;;;;;;5067371;28;20032;-62
2022/10/19 05:10:04;;;;;;;19.10;7.32;;;;;;;;;;5067727;28;20154;-62
2022/10/19 05:12:30;;;;;;;20.77;7.50;;;;;;;;;;5067540;28;20106;-62
2022/10/19 05:14:55;;;;;;;22.17;7.82;;;;;;;;;;5067398;28;20024;-62
2022/10/19 05:17:20;;;;;;;18.88;7.88;;;;;;;;;;5067386;28;20036;-62
2022/10/19 05:19:45;;;;;;;24.58;8.52;;;;;;;;;;5068022;28;20033;-63
2022/10/19 05:22:11;;;;;;;20.70;7.60;;;;;;;;;;5067316;28;20290;-62
2022/10/19 05:24:36;;;;;;;20.98;8.95;;;;;;;;;;5064124;28;20023;-62
2022/10/19 05:27:01;;;;;;;19.15;7.15;;;;;;;;;;5067191;28;20040;-62
2022/10/19 05:29:27;;;;;;;22.23;8.52;;;;;;;;;;5067009;28;20064;-62
2022/10/19 05:31:52;;;;;;;26.73;8.32;;;;;;;;;;5066947;28;20036;-62
2022/10/19 05:34:18;;;;;;;16.67;8.05;;;;;;;;;;5067176;28;20044;-62
2022/10/19 05:36:43;;;;;;;19.60;8.43;;;;;;;;;;5067152;28;20024;-62
2022/10/19 05:39:13;;;;;;;21.73;8.43;;;;;;;;;;5061083;28;20447;-63
2022/10/19 05:41:40;;;;;;;22.15;9.05;;;;;;;;;;5045199;28;20035;-62
2022/10/19 05:44:06;;;;;;;20.73;8.68;;;;;;;;;;5044045;28;20083;-62
2022/10/19 05:46:32;;;;;;;18.27;7.95;;;;;;;;;;5046504;28;20044;-61
2022/10/19 05:48:58;;;;;;;21.63;8.70;;;;;;;;;;5026899;28;20467;-62
2022/10/19 05:51:25;;;;;;;26.50;8.90;;;;;;;;;;5026767;28;20041;-62
2022/10/19 05:53:55;;;;;;;23.13;7.90;;;;;;;;;;5041898;28;20414;-62
2022/10/19 05:56:25;;;;;;;16.80;6.93;;;;;;;;;;5045180;28;20124;-63
2022/10/19 05:58:51;;;;;;;23.55;8.73;;;;;;;;;;5045056;28;20076;-62
2022/10/19 06:01:18;;;;;;;21.20;8.10;;;;;;;;;;5044723;28;20087;-63
2022/10/19 06:03:44;;;;;;;18.60;8.00;;;;;;;;;;5046397;28;20029;-62
2022/10/19 06:06:10;;;;;;;21.85;9.18;;;;;;;;;;5052695;28;20028;-62
2022/10/19 06:08:35;;;;;;;28.75;8.18;;;;;;;;;;5065305;28;20049;-63
2022/10/19 06:11:12;;;;;;;29.98;8.38;;;;;;;;;;5048454;28;20040;-63
2022/10/19 06:13:39;;;;;;;19.98;8.63;;;;;;;;;;5035299;28;20136;-64
2022/10/19 06:16:06;;;;;;;20.52;8.27;;;;;;;;;;5041376;28;20025;-63
2022/10/19 06:18:31;;;;;;;20.95;8.23;;;;;;;;;;5045313;28;20045;-66
2022/10/19 06:21:04;;;;;;;22.20;7.82;;;;;;;;;;5044046;28;20075;-63
2022/10/19 06:23:30;;;;;;;18.73;8.30;;;;;;;;;;5045371;28;20549;-63
2022/10/19 06:25:56;;;;;;;26.25;8.85;;;;;;;;;;5045843;28;20510;-63
2022/10/19 06:28:21;;;;;;;24.95;7.53;;;;;;;;;;5043283;28;20048;-63
2022/10/19 06:30:46;;;;;;;19.30;6.93;;;;;;;;;;5045661;28;20401;-63
2022/10/19 06:33:12;;;;;;;17.90;7.30;;;;;;;;;;5043901;28;20037;-63
2022/10/19 06:35:37;;;;;;;19.92;8.07;;;;;;;;;;5045586;28;20071;-63
2022/10/19 06:38:03;;;;;;;20.00;8.90;;;;;;;;;;5045468;28;20102;-63
2022/10/19 06:40:28;;;;;;;23.08;9.07;;;;;;;;;;5045860;28;20047;-63
2022/10/19 06:42:55;;;;;;;21.05;8.05;;;;;;;;;;5061109;28;20055;-63
2022/10/19 06:45:20;;;;;;;18.95;7.97;;;;;;;;;;5035702;28;20037;-63
2022/10/19 06:47:46;;;;;;;20.67;9.27;;;;;;;;;;5022679;28;20087;-63
2022/10/19 06:50:11;;;;;;;22.35;8.88;;;;;;;;;;5038065;28;20033;-63
2022/10/19 06:52:38;;;;;;;15.38;7.40;;;;;;;;;;5025502;28;20055;-63
2022/10/19 06:55:04;;;;;;;21.80;8.80;;;;;;;;;;5041350;28;20637;-63
2022/10/19 06:57:29;;;;;;;20.60;8.30;;;;;;;;;;5041753;28;20021;-63
2022/10/19 06:59:54;;;;;;;23.23;8.45;;;;;;;;;;5046890;28;20147;-63
2022/10/19 07:02:20;;;;;;;21.70;8.88;;;;;;;;;;5044943;28;20740;-63
2022/10/19 07:04:45;;;;;;;19.85;8.25;;;;;;;;;;5043594;28;20451;-63
2022/10/19 07:07:11;;;;;;;25.23;8.70;;;;;;;;;;5039689;28;20040;-64
2022/10/19 07:09:36;;;;;;;20.25;8.30;;;;;;;;;;5037983;28;20111;-63
2022/10/19 07:12:01;;;;;;;15.70;7.43;;;;;;;;;;5039560;28;20696;-63
2022/10/19 07:14:30;;;;;;;22.33;8.40;;;;;;;;;;5044515;28;20059;-65
2022/10/19 07:16:56;;;;;;;15.98;8.43;;;;;;;;;;5044534;28;20724;-65
2022/10/19 07:19:25;;;;;;;19.50;7.88;;;;;;;;;;5045331;28;20530;-65
2022/10/19 07:21:51;;;;;;;19.58;8.95;;;;;;;;;;5046208;28;20044;-65
2022/10/19 07:24:16;;;;;;;19.63;8.63;;;;;;;;;;5045856;28;20033;-65
2022/10/19 07:26:42;;;;;;;19.73;8.15;;;;;;;;;;5044762;28;20048;-64
2022/10/19 07:29:07;;;;;;;23.85;8.98;;;;;;;;;;5039028;28;20037;-65
2022/10/19 07:31:32;;;;;;;18.80;8.55;;;;;;;;;;5044588;28;20043;-65
2022/10/19 07:34:00;;;;;;;20.98;8.23;;;;;;;;;;5046212;28;20032;-65
2022/10/19 07:36:27;;;;;;;20.80;8.23;;;;;;;;;;5044233;28;20055;-63
2022/10/19 07:38:52;;;;;;;19.98;8.68;;;;;;;;;;5045164;28;20028;-63
2022/10/19 07:41:19;;;;;;;22.38;8.80;;;;;;;;;;5045093;28;20037;-64
2022/10/19 07:43:46;;;;;;;25.20;9.10;;;;;;;;;;5044951;28;20242;-63
2022/10/19 07:46:17;;;;;;;22.48;9.15;;;;;;;;;;5043691;28;20033;-63
2022/10/19 07:48:43;;;;;;;18.38;8.23;;;;;;;;;;5036584;28;20025;-63
2022/10/19 07:51:10;;;;;;;20.20;8.38;;;;;;;;;;5038960;28;20032;-63
2022/10/19 07:53:36;;;;;;;21.40;7.82;;;;;;;;;;5026459;28;20561;-63
2022/10/19 07:56:04;;;;;;;24.15;8.82;;;;;;;;;;5025113;28;20030;-63
2022/10/19 07:58:30;;;;;;;20.48;8.85;;;;;;;;;;5033050;28;20593;-63
2022/10/19 08:01:10;;;;;;;17.77;7.25;;;;;;;;;;5035295;28;20139;-63
2022/10/19 08:03:36;;;;;;;21.33;8.70;;;;;;;;;;5045105;28;20564;-64
2022/10/19 08:06:04;;;;;;;20.92;9.07;;;;;;;;;;5044399;28;20029;-63
2022/10/19 08:08:31;;;;;;;20.80;8.98;;;;;;;;;;5033504;28;20037;-63
2022/10/19 08:10:57;;;;;;;22.02;9.93;;;;;;;;;;5027315;28;20123;-63
2022/10/19 08:13:23;;;;;;;20.25;8.18;;;;;;;;;;5042279;28;20044;-63
2022/10/19 08:15:48;;;;;;;19.25;9.73;;;;;;;;;;5065409;28;20853;-64
2022/10/19 08:18:15;;;;;;;26.95;10.43;;;;;;;;;;5064248;28;20025;-64
2022/10/19 08:20:42;;;;;;;26.98;9.32;;;;;;;;;;5056829;28;20053;-63
2022/10/19 08:23:07;;;;;;;22.10;8.82;;;;;;;;;;5033347;28;20515;-64
2022/10/19 08:25:33;;;;;;;25.20;10.00;;;;;;;;;;5047460;28;20083;-63
2022/10/19 08:27:59;;;;;;;17.63;9.05;;;;;;;;;;5046865;28;20021;-63
2022/10/19 08:30:24;;;;;;;20.45;8.80;;;;;;;;;;5048660;28;20017;-63
2022/10/19 08:32:49;;;;;;;20.80;8.85;;;;;;;;;;5047889;28;20177;-64
2022/10/19 08:35:14;;;;;;;18.08;8.52;;;;;;;;;;5048662;28;20477;-64
2022/10/19 08:37:40;;;;;;;19.85;8.80;;;;;;;;;;5044684;28;20072;-65
2022/10/19 08:40:15;;;;;;;25.58;9.95;;;;;;;;;;5042291;28;20603;-63
2022/10/19 08:43:00;;;;;;;21.58;9.85;;;;;;;;;;5048987;28;20052;-63
2022/10/19 08:45:36;;;;;;;19.10;9.60;;;;;;;;;;5038988;28;20049;-63
2022/10/19 08:48:20;;;;;;;22.17;10.63;;;;;;;;;;5039465;28;20091;-63
2022/10/19 08:50:46;;;;;;;20.45;9.15;;;;;;;;;;5037121;28;20098;-63
2022/10/19 08:53:15;;;;;;;21.23;9.35;;;;;;;;;;5037782;28;20036;-66
2022/10/19 08:56:08;;;;;;;21.67;9.68;;;;;;;;;;5038689;28;20110;-63
2022/10/19 08:58:48;;;;;;;24.57;10.07;;;;;;;;;;5044099;28;20041;-65
2022/10/19 09:01:38;;;;;;;23.83;10.50;;;;;;;;;;5048518;28;20760;-65
2022/10/19 09:04:16;;;;;;;22.67;9.98;;;;;;;;;;5049123;28;20035;-65
2022/10/19 09:07:15;;;;;;;19.63;8.85;;;;;;;;;;5046418;28;20028;-63
2022/10/19 09:09:47;;;;;;;18.30;9.02;;;;;;;;;;5047224;28;20040;-63
2022/10/19 09:12:17;;;;;;;24.42;10.13;;;;;;;;;;5045472;28;20044;-63
2022/10/19 09:15:00;;;;;;;20.48;9.30;;;;;;;;;;5046253;28;20037;-65
2022/10/19 09:17:26;;;;;;;19.52;8.80;;;;;;;;;;5046687;28;20045;-65
2022/10/19 09:19:52;;;;;;;21.00;8.68;;;;;;;;;;5045142;28;20525;-65
2022/10/19 09:22:33;;;;;;;17.65;9.88;;;;;;;;;;5047006;28;20032;-65
2022/10/19 09:25:13;;;;;;;19.25;8.65;;;;;;;;;;5046354;28;20505;-63
2022/10/19 09:27:41;;;;;;;25.77;9.70;;;;;;;;;;5046449;28;20024;-64
2022/10/19 09:30:26;;;;;;;28.27;9.65;;;;;;;;;;5043035;28;20037;-64
2022/10/19 09:32:59;;;;;;;26.05;10.07;;;;;;;;;;5026491;28;20531;-64
2022/10/19 09:35:36;;;;;;;24.40;10.20;;;;;;;;;;5035575;28;20029;-64
2022/10/19 09:38:04;;;;;;;22.88;9.65;;;;;;;;;;5046222;28;20687;-64
2022/10/19 09:40:30;;;;;;;24.73;10.02;;;;;;;;;;5045775;28;20032;-64
2022/10/19 09:42:57;;;;;;;21.85;9.90;;;;;;;;;;5045149;28;20412;-63
2022/10/19 09:45:37;;;;;;;24.55;10.00;;;;;;;;;;5044049;28;21033;-64
2022/10/19 09:48:11;;;;;;;24.13;8.48;;;;;;;;;;5046553;28;20041;-64
2022/10/19 09:50:42;;;;;;;26.45;9.55;;;;;;;;;;5047550;28;20084;-64
2022/10/19 09:53:17;;;;;;;23.42;9.70;;;;;;;;;;5047144;28;20056;-64
2022/10/19 09:55:44;;;;;;;22.38;9.73;;;;;;;;;;5043041;28;20410;-64
2022/10/19 09:58:12;;;;;;;23.23;10.32;;;;;;;;;;5044908;28;20025;-64
2022/10/19 10:00:49;;;;;;;21.48;10.18;;;;;;;;;;5048245;28;20020;-64
2022/10/19 10:03:25;;;;;;;24.13;9.90;;;;;;;;;;5047382;28;20123;-64
2022/10/19 10:05:51;;;;;;;22.90;10.50;;;;;;;;;;5027970;28;20034;-64
2022/10/19 10:08:20;;;;;;;21.15;9.40;;;;;;;;;;5027264;28;20426;-64
2022/10/19 10:10:54;;;;;;;19.45;10.05;;;;;;;;;;5027291;28;20122;-64
2022/10/19 10:13:23;;;;;;;26.75;10.82;;;;;;;;;;5035088;28;20514;-64
2022/10/19 10:15:55;;;;;;;27.05;10.63;;;;;;;;;;5046049;28;20448;-64
2022/10/19 10:18:23;;;;;;;22.65;10.23;;;;;;;;;;5045611;28;20021;-64
2022/10/19 10:20:58;;;;;;;25.20;10.70;;;;;;;;;;5045853;28;20069;-64
2022/10/19 10:23:26;;;;;;;22.60;9.23;;;;;;;;;;5045367;28;20052;-64
2022/10/19 10:25:54;;;;;;;22.13;8.77;;;;;;;;;;5046030;28;20669;-64
2022/10/19 10:28:23;;;;;;;29.45;10.77;;;;;;;;;;5046649;28;20033;-64
2022/10/19 10:30:54;;;;;;;22.77;10.00;;;;;;;;;;5046035;28;20021;-64
2022/10/19 10:33:25;;;;;;;23.67;10.20;;;;;;;;;;5044762;28;20563;-64
2022/10/19 10:35:54;;;;;;;25.45;10.50;;;;;;;;;;5042312;28;20029;-64
2022/10/19 10:38:30;;;;;;;23.02;10.00;;;;;;;;;;5045572;28;20029;-64
2022/10/19 10:40:59;;;;;;;22.88;10.40;;;;;;;;;;5037425;28;20426;-64
2022/10/19 10:43:33;;;;;;;24.83;9.38;;;;;;;;;;5046126;28;20171;-64
2022/10/19 10:46:17;;;;;;;21.95;9.48;;;;;;;;;;5046630;28;20021;-63
2022/10/19 10:48:50;;;;;;;18.77;9.57;;;;;;;;;;5046461;28;20029;-64
2022/10/19 10:51:25;;;;;;;21.95;9.20;;;;;;;;;;5045301;28;20123;-64
2022/10/19 10:53:50;;;;;;;17.17;8.38;;;;;;;;;;5045817;28;20473;-64
2022/10/19 10:56:32;;;;;;;20.58;10.05;;;;;;;;;;5045954;28;20037;-64
2022/10/19 10:59:16;;;;;;;19.25;8.45;;;;;;;;;;5046499;28;20072;-64
2022/10/19 11:01:55;;;;;;;22.92;9.55;;;;;;;;;;5046204;28;20504;-64
2022/10/19 11:04:26;;;;;;;20.27;9.07;;;;;;;;;;5046578;28;20063;-64
2022/10/19 11:06:57;;;;;;;21.48;9.32;;;;;;;;;;5045558;28;20509;-64
2022/10/19 11:09:40;;;;;;;21.90;10.10;;;;;;;;;;5045284;28;20037;-64
2022/10/19 11:12:11;;;;;;;20.63;8.60;;;;;;;;;;5043793;28;20033;-64
2022/10/19 11:14:40;;;;;;;18.33;8.52;;;;;;;;;;5046279;28;20586;-64
2022/10/19 11:17:15;;;;;;;22.95;8.68;;;;;;;;;;5044948;28;20616;-64
2022/10/19 11:19:43;;;;;;;28.95;8.90;;;;;;;;;;5044676;28;20070;-64
2022/10/19 11:22:27;;;;;;;20.77;8.80;;;;;;;;;;5043940;28;20021;-64
2022/10/19 11:25:17;;;;;;;20.02;8.55;;;;;;;;;;5045593;28;20514;-64
2022/10/19 11:28:16;;;;;;;18.60;8.70;;;;;;;;;;5045398;28;20036;-64
2022/10/19 11:31:12;;;;;;;22.75;9.38;;;;;;;;;;5043193;28;20074;-64
2022/10/19 11:33:54;;;;;;;19.30;8.65;;;;;;;;;;5042091;28;20037;-64
2022/10/19 11:36:38;;;;;;;17.63;8.02;;;;;;;;;;5040830;28;20041;-64
2022/10/19 11:39:07;;;;;;;21.30;8.55;;;;;;;;;;5046156;28;20025;-64
2022/10/19 11:41:54;;;;;;;21.60;8.88;;;;;;;;;;5044028;28;20067;-64
2022/10/19 11:44:25;;;;;;;16.45;7.72;;;;;;;;;;5045918;28;20060;-64
2022/10/19 11:47:03;;;;;;;17.45;8.40;;;;;;;;;;5045010;28;20064;-63
2022/10/19 11:49:43;;;;;;;19.77;8.50;;;;;;;;;;5034156;28;20052;-64
2022/10/19 11:52:15;;;;;;;18.70;8.18;;;;;;;;;;5044216;28;20135;-64
2022/10/19 11:55:00;;;;;;;19.38;8.50;;;;;;;;;;5046448;28;20032;-64
2022/10/19 11:57:31;;;;;;;18.25;8.23;;;;;;;;;;5053302;28;20032;-64
2022/10/19 12:00:05;;;;;;;17.75;8.45;;;;;;;;;;5067725;28;20784;-64
2022/10/19 12:02:52;;;;;;;22.20;9.32;;;;;;;;;;5070338;28;20051;-64
2022/10/19 12:05:49;;;;;;;18.40;8.35;;;;;;;;;;5057044;28;20035;-64
2022/10/19 12:08:28;;;;;;;21.48;7.53;;;;;;;;;;5068812;28;20029;-64
2022/10/19 12:11:06;;;;;;;20.08;8.70;;;;;;;;;;5070196;28;20032;-64
2022/10/19 12:13:56;;;;;;;19.42;8.25;;;;;;;;;;5061867;28;20063;-64
2022/10/19 12:16:37;;;;;;;20.40;8.73;;;;;;;;;;5050208;28;20036;-64
2022/10/19 12:19:04;;;;;;;19.02;8.43;;;;;;;;;;5050051;28;20100;-63
2022/10/19 12:21:38;;;;;;;19.95;8.35;;;;;;;;;;5050410;28;20025;-64
2022/10/19 12:24:14;;;;;;;24.75;9.40;;;;;;;;;;5049710;28;20040;-64
2022/10/19 12:26:41;;;;;;;17.27;8.50;;;;;;;;;;5049770;28;20037;-64
2022/10/19 12:29:14;;;;;;;19.58;8.35;;;;;;;;;;5049648;28;20037;-64
2022/10/19 12:31:40;;;;;;;;;;;;;;;;;;5049449;28;20771;-64
2022/10/19 12:34:14;;;;;;;15.30;8.07;;;;;;;;;;5049854;28;19913;-64
2022/10/19 12:36:45;;;;;;;19.63;8.38;;;;;;;;;;5053935;28;20518;-64
2022/10/19 12:39:35;;;;;;;19.38;8.18;;;;;;;;;;5062845;28;20029;-64
2022/10/19 12:42:20;;;;;;;16.75;8.63;;;;;;;;;;5048162;28;20116;-64
2022/10/19 12:45:01;;;;;;;21.75;8.70;;;;;;;;;;5048265;28;20526;-64
2022/10/19 12:47:26;;;;;;;20.88;8.52;;;;;;;;;;5047222;28;20048;-64
2022/10/19 12:49:56;;;;;;;21.30;8.43;;;;;;;;;;5049921;28;20095;-64
2022/10/19 12:52:36;;;;;;;24.90;8.65;;;;;;;;;;5047901;28;20049;-64
2022/10/19 12:55:21;;;;;;;20.70;7.82;;;;;;;;;;5049776;28;20033;-64
2022/10/19 12:57:55;;;;;;;18.15;8.30;;;;;;;;;;5049131;28;20107;-64
2022/10/19 13:00:23;;;;;;;21.20;8.80;;;;;;;;;;5049760;28;20487;-64
2022/10/19 13:03:02;;;;;;;18.67;8.45;;;;;;;;;;5047198;28;20044;-64
2022/10/19 13:05:29;;;;;;;20.20;8.52;;;;;;;;;;5041350;28;20081;-64
2022/10/19 13:07:55;;;;;;;17.02;8.02;;;;;;;;;;5048856;28;20033;-64
2022/10/19 13:10:26;;;;;;;19.13;7.90;;;;;;;;;;5046930;28;20036;-64
2022/10/19 13:12:52;;;;;;;17.80;8.30;;;;;;;;;;5047958;28;20075;-64
2022/10/19 13:15:33;;;;;;;18.00;7.80;;;;;;;;;;5047548;28;20059;-64
2022/10/19 13:17:58;;;;;;;22.08;9.25;;;;;;;;;;5048155;28;20410;-64
2022/10/19 13:20:24;;;;;;;22.85;9.23;;;;;;;;;;5048289;28;20037;-64
2022/10/19 13:22:58;;;;;;;17.67;8.70;;;;;;;;;;5046046;28;20068;-64
2022/10/19 13:25:27;;;;;;;18.80;8.45;;;;;;;;;;5048028;28;20033;-64
2022/10/19 13:27:55;;;;;;;21.08;8.20;;;;;;;;;;5048605;28;20051;-64
2022/10/19 13:30:38;;;;;;;16.65;7.60;;;;;;;;;;5047841;28;20787;-64
2022/10/19 13:33:28;;;;;;;20.67;8.20;;;;;;;;;;5047378;28;20179;-64
2022/10/19 13:35:59;;;;;;;23.35;8.02;;;;;;;;;;5048104;28;20115;-64
2022/10/19 13:38:38;;;;;;;17.98;8.65;;;;;;;;;;5046441;28;20065;-64
2022/10/19 13:41:26;;;;;;;17.00;7.47;;;;;;;;;;5056182;28;20032;-64
2022/10/19 13:44:00;;;;;;;18.15;8.13;;;;;;;;;;5058455;28;20045;-64
2022/10/19 13:46:28;;;;;;;18.20;7.90;;;;;;;;;;5045009;28;20033;-64
2022/10/19 13:49:30;;;;;;;16.42;7.70;;;;;;;;;;5044838;28;20074;-64
2022/10/19 13:52:23;;;;;;;20.02;7.57;;;;;;;;;;5047551;28;20461;-64
2022/10/19 13:55:20;;;;;;;18.27;7.33;;;;;;;;;;5046381;28;20032;-64
2022/10/19 13:57:54;;;;;;;18.35;7.53;;;;;;;;;;5047740;28;20040;-64
2022/10/19 14:00:21;;;;;;;18.15;7.82;;;;;;;;;;5046703;28;20056;-64
2022/10/19 14:02:54;;;;;;;18.85;7.93;;;;;;;;;;5045170;28;20127;-64
2022/10/19 14:05:47;;;;;;;21.48;7.95;;;;;;;;;;5035290;28;20041;-64
2022/10/19 14:08:39;;;;;;;17.52;8.07;;;;;;;;;;5025957;28;20766;-64
2022/10/19 14:11:18;;;;;;;14.52;7.55;;;;;;;;;;5034531;28;20036;-64
2022/10/19 14:13:45;;;;;;;17.80;8.27;;;;;;;;;;5055761;28;20099;-64
2022/10/19 14:16:19;;;;;;;15.38;7.25;;;;;;;;;;5044487;28;20044;-64
2022/10/19 14:18:53;;;;;;;20.83;8.35;;;;;;;;;;5046026;28;20020;-64
2022/10/19 14:21:29;;;;;;;17.77;8.07;;;;;;;;;;5044386;28;20521;-64
2022/10/19 14:23:55;;;;;;;16.17;7.05;;;;;;;;;;5044980;28;20033;-64
2022/10/19 14:26:23;;;;;;;20.00;8.20;;;;;;;;;;5045721;28;20848;-64
2022/10/19 14:28:53;;;;;;;17.92;8.20;;;;;;;;;;5045498;28;20128;-64
2022/10/19 14:31:23;;;;;;;17.83;8.25;;;;;;;;;;5045186;28;20090;-64
2022/10/19 14:33:52;;;;;;;17.58;7.53;;;;;;;;;;5046199;28;20016;-64
2022/10/19 14:36:20;;;;;;;20.85;8.27;;;;;;;;;;5045646;28;20510;-64
2022/10/19 14:38:48;;;;;;;19.83;8.30;;;;;;;;;;5039929;28;20537;-64
2022/10/19 14:41:35;;;;;;;18.85;7.60;;;;;;;;;;5043946;28;20142;-64
2022/10/19 14:44:01;;;;;;;17.05;8.27;;;;;;;;;;5044183;28;20037;-64
2022/10/19 14:46:31;;;;;;;22.33;9.13;;;;;;;;;;5038361;28;20044;-64
2022/10/19 14:49:03;;;;;;;20.30;7.95;;;;;;;;;;5044734;28;20498;-64